Aviation Digital Data Service (ADDS)

Output produced by METARs form (2339 UTC 25 February 2018)
found at http://www.aviationweather.gov/adds/metars/
 
FVHA 252300Z 10004KT CAVOK 18/17 Q1018 NOSIG
FVHA 242200Z 2500/2606 05006KT CAVOK 
     BECMG 2506/2508 SCT015 
     TEMPO 2508/2510 BKN025TCU 
     PROB30 
     TEMPO 2510/2516 12010KT 8000 -TSRA FEW025CB SCT030 BKN080 
     BECMG 2518/2520 9999 SCT040 
     FM252000 CAVOK
       
FVBU 250400Z 2506/2612 10006KT 9999 FEW010 SCT090 
     BECMG 2508/2510 SCT025 
     PROB30 
     TEMPO 2512/2518 8000 -TSRA FEW030CB BKN080 
     BECMG 2520/2522 CAVOK 
     BECMG 2608/2610 SCT025